sensor_id;sensor_type;location;lat;lon;timestamp;P1;P2;P0
55304;PMS7003;65692;51.378;19.824;2023-08-17T00:01:10;30.00;26.00;20.50
55304;PMS7003;65692;51.378;19.824;2023-08-17T00:03:36;30.00;26.75;20.25
55304;PMS7003;65692;51.378;19.824;2023-08-17T00:06:03;26.50;25.25;21.25
55304;PMS7003;65692;51.378;19.824;2023-08-17T00:08:30;31.00;28.25;20.50
55304;PMS7003;65692;51.378;19.824;2023-08-17T00:10:56;29.00;24.75;18.75
55304;PMS7003;65692;51.378;19.824;2023-08-17T00:13:22;32.00;27.25;18.75
55304;PMS7003;65692;51.378;19.824;2023-08-17T00:15:49;27.50;24.50;19.00
55304;PMS7003;65692;51.378;19.824;2023-08-17T00:18:15;28.75;25.50;20.50
55304;PMS7003;65692;51.378;19.824;2023-08-17T00:20:42;30.25;27.25;18.00
55304;PMS7003;65692;51.378;19.824;2023-08-17T00:23:08;27.00;23.50;16.75
55304;PMS7003;65692;51.378;19.824;2023-08-17T00:25:35;26.00;25.25;18.00
55304;PMS7003;65692;51.378;19.824;2023-08-17T00:28:01;27.50;27.00;20.25
55304;PMS7003;65692;51.378;19.824;2023-08-17T00:30:28;27.00;21.50;16.25
55304;PMS7003;65692;51.378;19.824;2023-08-17T00:32:54;26.50;25.50;20.25
55304;PMS7003;65692;51.378;19.824;2023-08-17T00:35:21;25.75;25.00;19.25
55304;PMS7003;65692;51.378;19.824;2023-08-17T00:37:47;25.50;23.75;17.75
55304;PMS7003;65692;51.378;19.824;2023-08-17T00:40:14;28.75;26.75;18.00
55304;PMS7003;65692;51.378;19.824;2023-08-17T00:42:40;24.25;22.75;17.75
55304;PMS7003;65692;51.378;19.824;2023-08-17T00:45:07;22.50;22.50;18.50
55304;PMS7003;65692;51.378;19.824;2023-08-17T00:47:34;27.50;25.25;18.75
55304;PMS7003;65692;51.378;19.824;2023-08-17T00:50:00;31.75;26.50;19.00
55304;PMS7003;65692;51.378;19.824;2023-08-17T00:52:27;27.25;25.75;19.00
55304;PMS7003;65692;51.378;19.824;2023-08-17T00:54:55;28.00;25.75;17.50
55304;PMS7003;65692;51.378;19.824;2023-08-17T00:57:21;26.50;25.50;18.50
55304;PMS7003;65692;51.378;19.824;2023-08-17T00:59:49;27.75;26.50;20.25
55304;PMS7003;65692;51.378;19.824;2023-08-17T01:02:30;32.00;25.75;20.50
55304;PMS7003;65692;51.378;19.824;2023-08-17T01:04:56;28.25;25.75;19.25
55304;PMS7003;65692;51.378;19.824;2023-08-17T01:07:23;29.00;25.75;20.75
55304;PMS7003;65692;51.378;19.824;2023-08-17T01:09:50;28.50;26.25;19.00
55304;PMS7003;65692;51.378;19.824;2023-08-17T01:14:46;20.25;17.75;13.25
55304;PMS7003;65692;51.378;19.824;2023-08-17T01:17:22;24.50;23.50;18.75
55304;PMS7003;65692;51.378;19.824;2023-08-17T01:19:49;28.33;20.00;16.00
55304;PMS7003;65692;51.378;19.824;2023-08-17T01:22:17;27.50;21.50;16.75
55304;PMS7003;65692;51.378;19.824;2023-08-17T01:24:44;24.25;24.00;17.00
55304;PMS7003;65692;51.378;19.824;2023-08-17T01:27:10;28.75;23.25;17.75
55304;PMS7003;65692;51.378;19.824;2023-08-17T01:29:37;24.75;23.25;16.50
55304;PMS7003;65692;51.378;19.824;2023-08-17T01:32:12;23.25;20.50;14.50
55304;PMS7003;65692;51.378;19.824;2023-08-17T01:34:47;25.25;25.25;16.00
55304;PMS7003;65692;51.378;19.824;2023-08-17T01:37:17;26.75;20.75;16.00
55304;PMS7003;65692;51.378;19.824;2023-08-17T01:39:45;24.50;21.75;16.25
55304;PMS7003;65692;51.378;19.824;2023-08-17T01:42:16;20.50;19.50;15.50
55304;PMS7003;65692;51.378;19.824;2023-08-17T01:44:42;20.75;19.00;16.00
55304;PMS7003;65692;51.378;19.824;2023-08-17T01:47:09;21.00;19.00;14.75
55304;PMS7003;65692;51.378;19.824;2023-08-17T01:49:36;20.25;18.25;12.25
55304;PMS7003;65692;51.378;19.824;2023-08-17T01:52:03;18.75;18.00;13.75
55304;PMS7003;65692;51.378;19.824;2023-08-17T01:54:30;24.00;20.50;15.50
55304;PMS7003;65692;51.378;19.824;2023-08-17T01:56:56;18.00;17.25;13.25
55304;PMS7003;65692;51.378;19.824;2023-08-17T01:59:23;24.75;21.00;15.25
55304;PMS7003;65692;51.378;19.824;2023-08-17T02:01:51;19.50;18.50;14.50
55304;PMS7003;65692;51.378;19.824;2023-08-17T02:04:17;18.75;17.25;12.00
55304;PMS7003;65692;51.378;19.824;2023-08-17T02:06:43;21.50;18.50;12.50
55304;PMS7003;65692;51.378;19.824;2023-08-17T02:09:10;20.00;18.50;15.25
55304;PMS7003;65692;51.378;19.824;2023-08-17T02:11:36;21.25;18.75;14.25
55304;PMS7003;65692;51.378;19.824;2023-08-17T02:14:03;20.50;18.50;13.75
55304;PMS7003;65692;51.378;19.824;2023-08-17T02:16:29;20.75;19.00;15.25
55304;PMS7003;65692;51.378;19.824;2023-08-17T02:18:56;20.00;20.00;15.00
55304;PMS7003;65692;51.378;19.824;2023-08-17T02:21:22;18.75;18.75;14.75
55304;PMS7003;65692;51.378;19.824;2023-08-17T02:23:49;22.25;19.25;15.50
55304;PMS7003;65692;51.378;19.824;2023-08-17T02:26:15;21.75;21.25;16.00
55304;PMS7003;65692;51.378;19.824;2023-08-17T02:28:42;15.75;15.75;14.75
55304;PMS7003;65692;51.378;19.824;2023-08-17T02:31:08;16.25;12.00;11.50
55304;PMS7003;65692;51.378;19.824;2023-08-17T02:33:35;19.75;17.50;15.50
55304;PMS7003;65692;51.378;19.824;2023-08-17T02:36:03;19.75;18.75;14.00
55304;PMS7003;65692;51.378;19.824;2023-08-17T02:38:30;24.50;19.75;15.25
55304;PMS7003;65692;51.378;19.824;2023-08-17T02:40:56;21.50;18.25;13.75
55304;PMS7003;65692;51.378;19.824;2023-08-17T02:43:23;18.25;18.00;14.50
55304;PMS7003;65692;51.378;19.824;2023-08-17T02:45:49;24.00;21.00;15.75
55304;PMS7003;65692;51.378;19.824;2023-08-17T02:48:16;23.50;20.00;16.00
55304;PMS7003;65692;51.378;19.824;2023-08-17T02:50:42;25.25;22.00;18.00
55304;PMS7003;65692;51.378;19.824;2023-08-17T02:53:09;19.75;17.75;13.75
55304;PMS7003;65692;51.378;19.824;2023-08-17T02:55:35;19.00;17.75;13.50
55304;PMS7003;65692;51.378;19.824;2023-08-17T02:58:01;16.75;14.25;10.75
55304;PMS7003;65692;51.378;19.824;2023-08-17T03:00:29;17.00;17.00;14.00
55304;PMS7003;65692;51.378;19.824;2023-08-17T03:02:55;18.50;16.50;13.00
55304;PMS7003;65692;51.378;19.824;2023-08-17T03:05:22;20.50;20.50;15.25
55304;PMS7003;65692;51.378;19.824;2023-08-17T03:07:48;21.25;19.50;13.50
55304;PMS7003;65692;51.378;19.824;2023-08-17T03:10:15;19.25;16.75;13.00
55304;PMS7003;65692;51.378;19.824;2023-08-17T03:12:41;19.00;16.25;13.00
55304;PMS7003;65692;51.378;19.824;2023-08-17T03:15:08;21.50;20.75;15.25
55304;PMS7003;65692;51.378;19.824;2023-08-17T03:17:34;26.00;22.25;17.25
55304;PMS7003;65692;51.378;19.824;2023-08-17T03:20:01;14.75;14.25;12.00
55304;PMS7003;65692;51.378;19.824;2023-08-17T03:22:27;24.25;19.50;16.50
55304;PMS7003;65692;51.378;19.824;2023-08-17T03:24:57;21.00;17.75;14.00
55304;PMS7003;65692;51.378;19.824;2023-08-17T03:27:23;22.00;17.25;13.00
55304;PMS7003;65692;51.378;19.824;2023-08-17T03:29:51;23.00;20.75;16.50
55304;PMS7003;65692;51.378;19.824;2023-08-17T03:32:18;21.50;18.50;14.00
55304;PMS7003;65692;51.378;19.824;2023-08-17T03:34:44;21.50;20.25;16.00
55304;PMS7003;65692;51.378;19.824;2023-08-17T03:37:11;21.75;21.00;16.00
55304;PMS7003;65692;51.378;19.824;2023-08-17T03:39:37;22.50;21.50;17.50
55304;PMS7003;65692;51.378;19.824;2023-08-17T03:42:04;25.25;20.75;17.00
55304;PMS7003;65692;51.378;19.824;2023-08-17T03:44:30;20.75;18.50;13.50
55304;PMS7003;65692;51.378;19.824;2023-08-17T03:46:57;24.00;22.00;17.25
55304;PMS7003;65692;51.378;19.824;2023-08-17T03:49:23;21.50;18.75;14.75
55304;PMS7003;65692;51.378;19.824;2023-08-17T03:51:50;22.25;19.25;15.25
55304;PMS7003;65692;51.378;19.824;2023-08-17T03:54:17;25.75;23.00;17.50
55304;PMS7003;65692;51.378;19.824;2023-08-17T03:56:43;22.50;22.50;16.75
55304;PMS7003;65692;51.378;19.824;2023-08-17T03:59:10;24.50;22.00;18.00
55304;PMS7003;65692;51.378;19.824;2023-08-17T04:01:36;20.50;20.25;17.00
55304;PMS7003;65692;51.378;19.824;2023-08-17T04:04:03;22.25;20.00;15.50
55304;PMS7003;65692;51.378;19.824;2023-08-17T04:06:29;22.75;21.50;16.50
55304;PMS7003;65692;51.378;19.824;2023-08-17T04:08:56;26.00;23.75;18.50
55304;PMS7003;65692;51.378;19.824;2023-08-17T04:11:23;24.25;23.00;18.25
55304;PMS7003;65692;51.378;19.824;2023-08-17T04:13:49;23.75;22.00;17.00
55304;PMS7003;65692;51.378;19.824;2023-08-17T04:16:16;20.25;19.75;17.50
55304;PMS7003;65692;51.378;19.824;2023-08-17T04:18:42;33.00;26.25;19.75
55304;PMS7003;65692;51.378;19.824;2023-08-17T04:21:09;22.75;21.25;16.25
55304;PMS7003;65692;51.378;19.824;2023-08-17T04:23:35;24.25;21.75;17.75
55304;PMS7003;65692;51.378;19.824;2023-08-17T04:26:02;21.75;20.00;16.75
55304;PMS7003;65692;51.378;19.824;2023-08-17T04:28:28;22.25;21.50;16.25
55304;PMS7003;65692;51.378;19.824;2023-08-17T04:30:54;24.75;22.00;17.00
55304;PMS7003;65692;51.378;19.824;2023-08-17T04:33:21;22.25;22.25;18.50
55304;PMS7003;65692;51.378;19.824;2023-08-17T04:35:47;28.75;22.00;16.75
55304;PMS7003;65692;51.378;19.824;2023-08-17T04:38:14;20.75;20.75;16.25
55304;PMS7003;65692;51.378;19.824;2023-08-17T04:40:40;23.25;21.00;16.00
55304;PMS7003;65692;51.378;19.824;2023-08-17T04:43:09;25.50;21.00;17.00
55304;PMS7003;65692;51.378;19.824;2023-08-17T04:45:36;23.25;20.75;17.00
55304;PMS7003;65692;51.378;19.824;2023-08-17T04:48:03;26.00;23.75;18.25
55304;PMS7003;65692;51.378;19.824;2023-08-17T04:50:29;24.75;24.00;17.75
55304;PMS7003;65692;51.378;19.824;2023-08-17T04:52:56;23.50;20.75;17.00
55304;PMS7003;65692;51.378;19.824;2023-08-17T04:55:22;24.25;20.00;14.75
55304;PMS7003;65692;51.378;19.824;2023-08-17T04:57:49;27.75;24.25;19.00
55304;PMS7003;65692;51.378;19.824;2023-08-17T05:00:16;27.75;23.50;18.00
55304;PMS7003;65692;51.378;19.824;2023-08-17T05:02:42;24.50;24.00;16.75
55304;PMS7003;65692;51.378;19.824;2023-08-17T05:05:09;21.00;21.00;17.00
55304;PMS7003;65692;51.378;19.824;2023-08-17T05:07:36;30.00;24.00;19.00
55304;PMS7003;65692;51.378;19.824;2023-08-17T05:10:02;27.00;26.00;20.50
55304;PMS7003;65692;51.378;19.824;2023-08-17T05:12:29;26.50;22.25;17.50
55304;PMS7003;65692;51.378;19.824;2023-08-17T05:14:55;24.50;22.00;17.25
55304;PMS7003;65692;51.378;19.824;2023-08-17T05:17:23;24.75;20.50;15.50
55304;PMS7003;65692;51.378;19.824;2023-08-17T05:19:50;26.00;24.00;19.50
55304;PMS7003;65692;51.378;19.824;2023-08-17T05:22:17;25.50;22.25;17.50
55304;PMS7003;65692;51.378;19.824;2023-08-17T05:24:44;24.75;20.75;17.50
55304;PMS7003;65692;51.378;19.824;2023-08-17T05:27:10;24.25;24.25;19.00
55304;PMS7003;65692;51.378;19.824;2023-08-17T05:29:37;20.25;18.25;13.50
55304;PMS7003;65692;51.378;19.824;2023-08-17T05:32:03;23.75;23.75;19.75
55304;PMS7003;65692;51.378;19.824;2023-08-17T05:34:30;27.50;25.00;18.00
55304;PMS7003;65692;51.378;19.824;2023-08-17T05:36:56;24.75;23.00;17.75
55304;PMS7003;65692;51.378;19.824;2023-08-17T05:39:23;22.25;21.00;17.75
55304;PMS7003;65692;51.378;19.824;2023-08-17T05:41:49;25.50;23.00;18.25
55304;PMS7003;65692;51.378;19.824;2023-08-17T05:44:16;26.00;23.75;19.25
55304;PMS7003;65692;51.378;19.824;2023-08-17T05:46:43;26.25;24.25;19.00
55304;PMS7003;65692;51.378;19.824;2023-08-17T05:49:10;27.75;25.75;18.50
55304;PMS7003;65692;51.378;19.824;2023-08-17T05:51:36;25.25;25.00;20.25
55304;PMS7003;65692;51.378;19.824;2023-08-17T05:54:03;29.00;23.00;17.50
55304;PMS7003;65692;51.378;19.824;2023-08-17T05:56:29;26.50;26.25;20.50
55304;PMS7003;65692;51.378;19.824;2023-08-17T05:58:56;25.00;23.75;19.00
55304;PMS7003;65692;51.378;19.824;2023-08-17T06:01:22;26.50;26.00;20.00
55304;PMS7003;65692;51.378;19.824;2023-08-17T06:03:49;26.50;24.00;17.75
55304;PMS7003;65692;51.378;19.824;2023-08-17T06:06:16;26.50;25.00;20.00
55304;PMS7003;65692;51.378;19.824;2023-08-17T06:08:42;27.00;25.75;20.00
55304;PMS7003;65692;51.378;19.824;2023-08-17T06:11:09;16.75;14.75;11.75
55304;PMS7003;65692;51.378;19.824;2023-08-17T06:13:35;26.25;24.00;18.75
55304;PMS7003;65692;51.378;19.824;2023-08-17T06:16:02;27.50;25.00;19.75
55304;PMS7003;65692;51.378;19.824;2023-08-17T06:18:29;24.75;24.75;19.25
55304;PMS7003;65692;51.378;19.824;2023-08-17T06:20:56;25.25;24.75;19.00
55304;PMS7003;65692;51.378;19.824;2023-08-17T06:23:23;28.75;26.50;20.00
55304;PMS7003;65692;51.378;19.824;2023-08-17T06:25:50;30.75;28.25;20.00
55304;PMS7003;65692;51.378;19.824;2023-08-17T06:28:16;28.75;28.75;20.25
55304;PMS7003;65692;51.378;19.824;2023-08-17T06:30:43;27.25;26.75;21.00
55304;PMS7003;65692;51.378;19.824;2023-08-17T06:33:09;30.00;27.75;20.00
55304;PMS7003;65692;51.378;19.824;2023-08-17T06:35:36;34.00;30.00;21.00
55304;PMS7003;65692;51.378;19.824;2023-08-17T06:38:02;28.25;26.00;20.00
55304;PMS7003;65692;51.378;19.824;2023-08-17T06:40:29;32.50;30.50;22.00
55304;PMS7003;65692;51.378;19.824;2023-08-17T06:42:55;29.75;28.50;20.25
55304;PMS7003;65692;51.378;19.824;2023-08-17T06:45:21;25.00;25.00;20.00
55304;PMS7003;65692;51.378;19.824;2023-08-17T06:47:49;28.25;26.25;20.00
55304;PMS7003;65692;51.378;19.824;2023-08-17T06:50:15;26.75;24.50;19.75
55304;PMS7003;65692;51.378;19.824;2023-08-17T06:52:42;29.00;26.25;20.75
55304;PMS7003;65692;51.378;19.824;2023-08-17T06:55:08;35.00;31.75;23.50
55304;PMS7003;65692;51.378;19.824;2023-08-17T06:57:36;53.00;44.75;30.00
55304;PMS7003;65692;51.378;19.824;2023-08-17T07:00:02;53.50;42.75;28.25
55304;PMS7003;65692;51.378;19.824;2023-08-17T07:02:31;34.75;32.00;22.00
55304;PMS7003;65692;51.378;19.824;2023-08-17T07:05:16;46.00;36.00;26.00
55304;PMS7003;65692;51.378;19.824;2023-08-17T07:07:43;31.75;29.75;20.75
55304;PMS7003;65692;51.378;19.824;2023-08-17T07:10:10;35.75;29.75;21.50
55304;PMS7003;65692;51.378;19.824;2023-08-17T07:12:37;33.00;30.25;22.00
55304;PMS7003;65692;51.378;19.824;2023-08-17T07:15:04;34.00;31.50;20.25
55304;PMS7003;65692;51.378;19.824;2023-08-17T07:17:31;32.50;30.00;20.00
55304;PMS7003;65692;51.378;19.824;2023-08-17T07:19:57;27.25;24.50;19.00
55304;PMS7003;65692;51.378;19.824;2023-08-17T07:22:42;27.50;27.00;20.25
55304;PMS7003;65692;51.378;19.824;2023-08-17T07:25:08;27.75;26.00;20.00
55304;PMS7003;65692;51.378;19.824;2023-08-17T07:27:35;36.00;31.50;22.50
55304;PMS7003;65692;51.378;19.824;2023-08-17T07:30:02;30.50;26.75;20.00
55304;PMS7003;65692;51.378;19.824;2023-08-17T07:32:28;37.00;29.25;21.75
55304;PMS7003;65692;51.378;19.824;2023-08-17T07:34:55;31.25;29.75;22.00
55304;PMS7003;65692;51.378;19.824;2023-08-17T07:37:21;28.75;27.75;20.50
55304;PMS7003;65692;51.378;19.824;2023-08-17T07:39:48;27.75;27.00;20.00
55304;PMS7003;65692;51.378;19.824;2023-08-17T07:42:14;34.00;29.75;21.50
55304;PMS7003;65692;51.378;19.824;2023-08-17T07:44:41;32.75;30.75;22.25
55304;PMS7003;65692;51.378;19.824;2023-08-17T07:47:08;33.00;30.00;21.25
55304;PMS7003;65692;51.378;19.824;2023-08-17T07:49:34;32.75;29.25;20.25
55304;PMS7003;65692;51.378;19.824;2023-08-17T07:52:01;29.75;28.00;21.25
55304;PMS7003;65692;51.378;19.824;2023-08-17T07:54:27;28.00;27.25;20.00
55304;PMS7003;65692;51.378;19.824;2023-08-17T07:56:54;30.25;27.75;19.00
55304;PMS7003;65692;51.378;19.824;2023-08-17T07:59:20;33.00;30.25;22.00
55304;PMS7003;65692;51.378;19.824;2023-08-17T08:01:47;31.75;30.00;21.50
55304;PMS7003;65692;51.378;19.824;2023-08-17T08:04:13;29.25;26.25;20.25
55304;PMS7003;65692;51.378;19.824;2023-08-17T08:06:40;30.00;29.50;19.75
55304;PMS7003;65692;51.378;19.824;2023-08-17T08:09:06;32.00;31.25;21.00
55304;PMS7003;65692;51.378;19.824;2023-08-17T08:11:33;30.25;27.75;20.25
55304;PMS7003;65692;51.378;19.824;2023-08-17T08:14:00;28.50;27.75;20.25
55304;PMS7003;65692;51.378;19.824;2023-08-17T08:16:27;31.50;28.50;20.75
55304;PMS7003;65692;51.378;19.824;2023-08-17T08:18:56;27.00;26.75;18.25
55304;PMS7003;65692;51.378;19.824;2023-08-17T08:21:22;32.50;28.50;21.50
55304;PMS7003;65692;51.378;19.824;2023-08-17T08:23:48;31.50;26.50;21.25
55304;PMS7003;65692;51.378;19.824;2023-08-17T08:26:15;31.50;29.25;21.25
55304;PMS7003;65692;51.378;19.824;2023-08-17T08:28:42;29.00;26.75;20.25
55304;PMS7003;65692;51.378;19.824;2023-08-17T08:31:08;32.50;30.25;22.25
55304;PMS7003;65692;51.378;19.824;2023-08-17T08:33:35;30.25;29.25;21.00
55304;PMS7003;65692;51.378;19.824;2023-08-17T08:36:01;27.00;26.25;18.25
55304;PMS7003;65692;51.378;19.824;2023-08-17T08:38:28;28.00;28.00;20.00
55304;PMS7003;65692;51.378;19.824;2023-08-17T08:40:55;31.75;28.50;21.50
55304;PMS7003;65692;51.378;19.824;2023-08-17T08:43:21;29.50;29.50;20.50
55304;PMS7003;65692;51.378;19.824;2023-08-17T08:45:48;28.50;28.50;19.75
55304;PMS7003;65692;51.378;19.824;2023-08-17T08:48:15;26.00;25.00;18.75
55304;PMS7003;65692;51.378;19.824;2023-08-17T08:50:44;30.25;28.25;20.50
55304;PMS7003;65692;51.378;19.824;2023-08-17T08:53:14;27.25;24.25;18.75
55304;PMS7003;65692;51.378;19.824;2023-08-17T08:55:46;27.25;27.00;20.50
55304;PMS7003;65692;51.378;19.824;2023-08-17T08:58:15;25.50;23.75;18.25
55304;PMS7003;65692;51.378;19.824;2023-08-17T09:00:41;27.25;23.75;19.75
55304;PMS7003;65692;51.378;19.824;2023-08-17T09:03:08;29.00;28.00;18.50
55304;PMS7003;65692;51.378;19.824;2023-08-17T09:05:36;23.75;23.75;17.50
55304;PMS7003;65692;51.378;19.824;2023-08-17T09:08:03;32.25;27.75;20.00
55304;PMS7003;65692;51.378;19.824;2023-08-17T09:10:30;28.75;26.50;18.50
55304;PMS7003;65692;51.378;19.824;2023-08-17T09:13:03;29.50;28.75;20.50
55304;PMS7003;65692;51.378;19.824;2023-08-17T09:15:30;26.25;23.25;17.25
55304;PMS7003;65692;51.378;19.824;2023-08-17T09:17:56;28.50;25.00;20.00
55304;PMS7003;65692;51.378;19.824;2023-08-17T09:20:43;29.00;28.00;20.75
55304;PMS7003;65692;51.378;19.824;2023-08-17T09:23:14;28.00;27.25;20.50
55304;PMS7003;65692;51.378;19.824;2023-08-17T09:25:41;29.75;27.50;21.00
55304;PMS7003;65692;51.378;19.824;2023-08-17T09:28:09;28.00;27.00;19.75
55304;PMS7003;65692;51.378;19.824;2023-08-17T09:33:24;31.00;28.75;21.25
55304;PMS7003;65692;51.378;19.824;2023-08-17T09:35:51;28.50;25.75;19.25
55304;PMS7003;65692;51.378;19.824;2023-08-17T09:38:24;28.25;26.50;20.25
55304;PMS7003;65692;51.378;19.824;2023-08-17T09:40:51;26.25;25.00;19.00
55304;PMS7003;65692;51.378;19.824;2023-08-17T09:43:18;28.00;26.75;19.50
55304;PMS7003;65692;51.378;19.824;2023-08-17T09:45:45;27.75;27.75;20.50
55304;PMS7003;65692;51.378;19.824;2023-08-17T09:48:16;33.50;31.00;20.75
55304;PMS7003;65692;51.378;19.824;2023-08-17T09:50:46;34.00;31.75;21.50
55304;PMS7003;65692;51.378;19.824;2023-08-17T09:53:14;31.00;29.25;20.25
55304;PMS7003;65692;51.378;19.824;2023-08-17T09:55:41;30.25;29.00;21.50
55304;PMS7003;65692;51.378;19.824;2023-08-17T09:58:07;31.00;29.50;22.00
55304;PMS7003;65692;51.378;19.824;2023-08-17T10:00:34;30.50;28.25;19.75
55304;PMS7003;65692;51.378;19.824;2023-08-17T10:03:02;31.50;31.00;21.50
55304;PMS7003;65692;51.378;19.824;2023-08-17T10:05:35;29.00;25.75;19.75
55304;PMS7003;65692;51.378;19.824;2023-08-17T10:08:04;29.50;28.50;20.25
55304;PMS7003;65692;51.378;19.824;2023-08-17T10:10:34;32.00;30.00;21.50
55304;PMS7003;65692;51.378;19.824;2023-08-17T10:13:11;29.25;27.75;20.50
55304;PMS7003;65692;51.378;19.824;2023-08-17T10:15:51;28.50;28.25;21.00
55304;PMS7003;65692;51.378;19.824;2023-08-17T10:21:23;30.00;27.50;20.00
55304;PMS7003;65692;51.378;19.824;2023-08-17T10:23:53;29.25;28.00;20.75
55304;PMS7003;65692;51.378;19.824;2023-08-17T10:26:20;32.25;29.25;21.75
55304;PMS7003;65692;51.378;19.824;2023-08-17T10:28:48;27.75;26.75;20.00
55304;PMS7003;65692;51.378;19.824;2023-08-17T10:31:15;34.00;29.00;20.50
55304;PMS7003;65692;51.378;19.824;2023-08-17T10:33:42;28.75;27.50;20.25
55304;PMS7003;65692;51.378;19.824;2023-08-17T10:36:13;33.50;31.25;21.50
55304;PMS7003;65692;51.378;19.824;2023-08-17T10:38:40;37.75;30.00;21.50
55304;PMS7003;65692;51.378;19.824;2023-08-17T10:41:07;34.50;30.00;22.00
55304;PMS7003;65692;51.378;19.824;2023-08-17T10:43:34;32.50;30.25;21.50
55304;PMS7003;65692;51.378;19.824;2023-08-17T10:46:14;20.75;19.50;16.50
55304;PMS7003;65692;51.378;19.824;2023-08-17T10:48:43;31.25;27.50;20.00
55304;PMS7003;65692;51.378;19.824;2023-08-17T10:51:09;30.75;29.50;21.75
55304;PMS7003;65692;51.378;19.824;2023-08-17T10:53:40;34.00;29.25;20.25
55304;PMS7003;65692;51.378;19.824;2023-08-17T10:56:12;31.25;29.50;20.75
55304;PMS7003;65692;51.378;19.824;2023-08-17T10:58:40;34.25;30.75;21.25
55304;PMS7003;65692;51.378;19.824;2023-08-17T11:01:08;28.00;26.00;18.75
55304;PMS7003;65692;51.378;19.824;2023-08-17T11:03:34;33.50;30.50;20.75
55304;PMS7003;65692;51.378;19.824;2023-08-17T11:06:15;34.00;30.00;20.50
55304;PMS7003;65692;51.378;19.824;2023-08-17T11:08:53;29.75;29.50;21.50
55304;PMS7003;65692;51.378;19.824;2023-08-17T11:11:21;27.50;26.25;21.00
55304;PMS7003;65692;51.378;19.824;2023-08-17T11:13:49;34.25;30.75;21.50
55304;PMS7003;65692;51.378;19.824;2023-08-17T11:16:21;28.50;27.25;19.75
55304;PMS7003;65692;51.378;19.824;2023-08-17T11:18:48;27.25;27.25;20.75
55304;PMS7003;65692;51.378;19.824;2023-08-17T11:21:18;28.75;27.50;20.25
55304;PMS7003;65692;51.378;19.824;2023-08-17T11:23:46;30.00;28.50;20.75
55304;PMS7003;65692;51.378;19.824;2023-08-17T11:26:15;32.25;29.50;21.25
55304;PMS7003;65692;51.378;19.824;2023-08-17T11:28:42;25.50;25.50;19.50
55304;PMS7003;65692;51.378;19.824;2023-08-17T11:31:11;30.25;27.75;20.75
55304;PMS7003;65692;51.378;19.824;2023-08-17T11:33:38;30.50;29.00;20.25
55304;PMS7003;65692;51.378;19.824;2023-08-17T11:36:06;32.25;26.75;20.50
55304;PMS7003;65692;51.378;19.824;2023-08-17T11:38:34;29.75;26.00;20.75
55304;PMS7003;65692;51.378;19.824;2023-08-17T11:41:00;28.00;28.00;21.00
55304;PMS7003;65692;51.378;19.824;2023-08-17T11:43:28;27.75;25.75;20.00
55304;PMS7003;65692;51.378;19.824;2023-08-17T11:45:55;15.25;13.00;13.00
55304;PMS7003;65692;51.378;19.824;2023-08-17T11:48:23;27.50;25.50;18.25
55304;PMS7003;65692;51.378;19.824;2023-08-17T11:50:50;28.75;25.75;18.25
55304;PMS7003;65692;51.378;19.824;2023-08-17T11:53:17;21.75;21.25;16.75
55304;PMS7003;65692;51.378;19.824;2023-08-17T11:55:43;26.25;21.75;17.25
55304;PMS7003;65692;51.378;19.824;2023-08-17T11:58:10;22.25;22.25;16.00
55304;PMS7003;65692;51.378;19.824;2023-08-17T12:00:40;26.00;25.75;19.00
55304;PMS7003;65692;51.378;19.824;2023-08-17T12:03:07;20.50;19.00;16.50
55304;PMS7003;65692;51.378;19.824;2023-08-17T12:05:34;20.25;20.00;15.50
55304;PMS7003;65692;51.378;19.824;2023-08-17T12:08:01;21.50;21.50;17.75
55304;PMS7003;65692;51.378;19.824;2023-08-17T12:10:28;20.25;19.50;15.50
55304;PMS7003;65692;51.378;19.824;2023-08-17T12:12:57;20.00;16.75;14.00
55304;PMS7003;65692;51.378;19.824;2023-08-17T12:15:24;19.25;18.75;15.75
55304;PMS7003;65692;51.378;19.824;2023-08-17T12:17:51;20.75;20.25;13.75
55304;PMS7003;65692;51.378;19.824;2023-08-17T12:20:20;21.75;21.50;15.25
55304;PMS7003;65692;51.378;19.824;2023-08-17T12:22:46;20.00;19.00;15.00
55304;PMS7003;65692;51.378;19.824;2023-08-17T12:25:13;21.25;19.00;15.25
55304;PMS7003;65692;51.378;19.824;2023-08-17T12:27:40;19.25;18.75;14.25
55304;PMS7003;65692;51.378;19.824;2023-08-17T12:30:16;20.75;19.75;16.00
55304;PMS7003;65692;51.378;19.824;2023-08-17T12:32:49;20.50;19.00;14.25
55304;PMS7003;65692;51.378;19.824;2023-08-17T12:35:16;15.75;14.75;10.00
55304;PMS7003;65692;51.378;19.824;2023-08-17T12:37:42;17.00;16.25;14.50
55304;PMS7003;65692;51.378;19.824;2023-08-17T12:40:09;17.50;16.75;13.50
55304;PMS7003;65692;51.378;19.824;2023-08-17T12:42:36;18.50;17.00;13.50
55304;PMS7003;65692;51.378;19.824;2023-08-17T12:45:02;23.50;19.75;15.00
55304;PMS7003;65692;51.378;19.824;2023-08-17T12:47:31;17.25;17.00;12.00
55304;PMS7003;65692;51.378;19.824;2023-08-17T12:50:00;17.00;16.25;13.25
55304;PMS7003;65692;51.378;19.824;2023-08-17T12:52:27;21.75;20.25;15.00
55304;PMS7003;65692;51.378;19.824;2023-08-17T12:54:54;16.25;15.50;12.25
55304;PMS7003;65692;51.378;19.824;2023-08-17T12:57:21;15.00;15.00;12.50
55304;PMS7003;65692;51.378;19.824;2023-08-17T12:59:47;16.00;16.00;13.25
55304;PMS7003;65692;51.378;19.824;2023-08-17T13:02:14;16.50;16.50;12.25
55304;PMS7003;65692;51.378;19.824;2023-08-17T13:04:41;17.50;16.50;13.00
55304;PMS7003;65692;51.378;19.824;2023-08-17T13:07:07;16.75;14.00;12.00
55304;PMS7003;65692;51.378;19.824;2023-08-17T13:09:34;18.25;16.50;12.75
55304;PMS7003;65692;51.378;19.824;2023-08-17T13:12:00;12.50;10.75;8.75
55304;PMS7003;65692;51.378;19.824;2023-08-17T13:14:27;17.00;15.50;12.00
55304;PMS7003;65692;51.378;19.824;2023-08-17T13:16:53;12.00;12.00;9.50
55304;PMS7003;65692;51.378;19.824;2023-08-17T13:19:20;13.50;13.50;10.75
55304;PMS7003;65692;51.378;19.824;2023-08-17T13:21:46;12.00;10.25;9.00
55304;PMS7003;65692;51.378;19.824;2023-08-17T13:24:12;10.75;10.75;7.75
55304;PMS7003;65692;51.378;19.824;2023-08-17T13:26:39;11.50;11.50;9.00
55304;PMS7003;65692;51.378;19.824;2023-08-17T13:29:07;14.00;12.00;10.00
55304;PMS7003;65692;51.378;19.824;2023-08-17T13:31:35;13.50;12.75;10.00
55304;PMS7003;65692;51.378;19.824;2023-08-17T13:34:01;10.50;10.50;8.75
55304;PMS7003;65692;51.378;19.824;2023-08-17T13:36:28;10.25;10.25;7.75
55304;PMS7003;65692;51.378;19.824;2023-08-17T13:38:54;11.50;10.75;8.75
55304;PMS7003;65692;51.378;19.824;2023-08-17T13:41:21;15.00;12.00;8.75
55304;PMS7003;65692;51.378;19.824;2023-08-17T13:43:48;8.50;7.75;6.25